Time;durP1;ratioP1;P1;durP2;ratioP2;P2;SDS_P1;SDS_P2;PMS_P1;PMS_P2;Temp;Humidity;BMP_temperature;BMP_pressure;BME280_temperature;BME280_humidity;BME280_pressure;Samples;Min_cycle;Max_cycle;Signal;HPM_P1;HPM_P2
2022/05/02 00:00:14;;;;;;;3.67;2.15;;;1.60;99.90;;;;;;5014931;28;20034;-71
2022/05/02 00:02:40;;;;;;;2.42;2.00;;;1.60;99.90;;;;;;5014860;28;20038;-71
2022/05/02 00:05:06;;;;;;;3.10;1.98;;;1.50;99.90;;;;;;5014750;28;20030;-71
2022/05/02 00:07:32;;;;;;;3.45;2.17;;;1.50;99.90;;;;;;5013655;28;20383;-71
2022/05/02 00:09:58;;;;;;;2.25;1.98;;;1.40;99.90;;;;;;5014642;28;20064;-71
2022/05/02 00:12:24;;;;;;;2.47;1.95;;;1.40;99.90;;;;;;5013165;28;20489;-71
2022/05/02 00:14:49;;;;;;;5.53;2.40;;;1.40;99.90;;;;;;5014669;28;20506;-71
2022/05/02 00:17:16;;;;;;;3.42;2.28;;;1.40;99.90;;;;;;5014079;28;20056;-71
2022/05/02 00:19:41;;;;;;;2.75;2.15;;;1.30;99.90;;;;;;5014327;28;20084;-71
2022/05/02 00:22:07;;;;;;;3.00;2.08;;;1.20;99.90;;;;;;5014329;28;20034;-71
2022/05/02 00:24:32;;;;;;;2.55;1.70;;;1.20;99.90;;;;;;5014526;28;20076;-71
2022/05/02 00:26:58;;;;;;;3.97;2.50;;;1.10;99.90;;;;;;5014435;28;20057;-71
2022/05/02 00:29:24;;;;;;;3.28;2.15;;;1.10;99.90;;;;;;5013718;28;20026;-71
2022/05/02 00:31:50;;;;;;;2.55;2.08;;;1.10;99.90;;;;;;5014414;28;20018;-71
2022/05/02 00:34:15;;;;;;;4.47;2.15;;;1.10;99.90;;;;;;5014154;28;20030;-71
2022/05/02 00:36:41;;;;;;;4.22;2.83;;;1.10;99.90;;;;;;5014048;28;20076;-71
2022/05/02 00:39:07;;;;;;;3.20;2.45;;;1.00;99.90;;;;;;5013529;28;20030;-71
2022/05/02 00:41:33;;;;;;;3.00;2.33;;;1.00;99.90;;;;;;5014021;28;20033;-71
2022/05/02 00:43:58;;;;;;;2.83;2.10;;;1.00;99.90;;;;;;5014308;28;20053;-71
2022/05/02 00:46:26;;;;;;;6.75;2.95;;;1.00;99.90;;;;;;5014242;28;20512;-71
2022/05/02 00:48:53;;;;;;;3.92;2.60;;;1.00;99.90;;;;;;5013528;28;20036;-71
2022/05/02 00:51:20;;;;;;;6.55;3.08;;;1.00;99.90;;;;;;5012708;28;20041;-71
2022/05/02 00:53:48;;;;;;;3.50;2.72;;;1.00;99.90;;;;;;5013894;28;20029;-71
2022/05/02 00:56:16;;;;;;;5.95;2.95;;;0.90;99.90;;;;;;5014258;28;20057;-71
2022/05/02 00:58:42;;;;;;;4.72;2.70;;;1.00;99.90;;;;;;5013824;28;20022;-71
2022/05/02 01:01:08;;;;;;;3.45;2.65;;;0.90;99.90;;;;;;5013773;28;20026;-71
2022/05/02 01:03:34;;;;;;;3.63;2.78;;;0.90;99.90;;;;;;5014088;28;20057;-71
2022/05/02 01:08:46;;;;;;;4.50;2.55;;;0.80;99.90;;;;;;5014002;28;20528;-71
2022/05/02 01:11:12;;;;;;;4.57;2.70;;;0.80;99.90;;;;;;5014192;28;20097;-72
2022/05/02 01:13:40;;;;;;;3.20;2.47;;;0.80;99.90;;;;;;5013693;28;20363;-71
2022/05/02 01:16:12;;;;;;;3.28;2.75;;;0.80;99.90;;;;;;5013191;28;20022;-72
2022/05/02 01:18:38;;;;;;;7.72;2.85;;;0.80;99.90;;;;;;5015299;28;20026;-71
2022/05/02 01:21:12;;;;;;;4.07;3.03;;;0.70;99.90;;;;;;5017521;28;20149;-72
2022/05/02 01:23:38;;;;;;;4.35;2.75;;;0.70;99.90;;;;;;5017263;28;20056;-71
2022/05/02 01:26:04;;;;;;;4.38;3.38;;;0.60;99.90;;;;;;5017437;28;20034;-71
2022/05/02 01:28:29;;;;;;;4.25;2.90;;;0.60;99.90;;;;;;5017470;28;20425;-72
2022/05/02 01:30:56;;;;;;;5.85;3.53;;;0.60;99.90;;;;;;5017369;28;20447;-71
2022/05/02 01:33:21;;;;;;;4.35;2.95;;;0.60;99.90;;;;;;5017482;28;20026;-71
2022/05/02 01:35:47;;;;;;;6.53;3.47;;;0.60;99.90;;;;;;5016973;28;20470;-71
2022/05/02 01:38:13;;;;;;;7.28;3.22;;;0.60;99.90;;;;;;5017475;28;20053;-72
2022/05/02 01:40:39;;;;;;;4.82;3.53;;;0.60;99.90;;;;;;5016980;28;20589;-71
2022/05/02 01:43:04;;;;;;;4.22;3.40;;;0.60;99.90;;;;;;5017296;28;20053;-71
2022/05/02 01:45:30;;;;;;;4.07;3.03;;;0.60;99.90;;;;;;5017368;28;20474;-71
2022/05/02 01:47:55;;;;;;;4.30;3.10;;;0.50;99.90;;;;;;5016583;28;20030;-71
2022/05/02 01:50:21;;;;;;;4.25;2.63;;;0.50;99.90;;;;;;5016976;28;20018;-71
2022/05/02 01:52:47;;;;;;;4.07;3.05;;;0.50;99.90;;;;;;5017027;28;20030;-71
2022/05/02 01:55:12;;;;;;;6.82;3.35;;;0.50;99.90;;;;;;5017176;28;20140;-71
2022/05/02 01:57:38;;;;;;;4.32;2.95;;;0.40;99.90;;;;;;5016985;28;20028;-71
2022/05/02 02:00:04;;;;;;;3.75;2.85;;;0.40;99.90;;;;;;5016894;28;20030;-71
2022/05/02 02:02:30;;;;;;;5.18;3.08;;;0.40;99.90;;;;;;5016799;28;20033;-71
2022/05/02 02:07:39;;;;;;;;;;;0.30;99.90;;;;;;5017508;28;20036;-71
2022/05/02 02:10:05;;;;;;;5.28;3.85;;;0.20;99.90;;;;;;5015039;28;19905;-71
2022/05/02 02:12:31;;;;;;;12.73;5.63;;;0.20;99.90;;;;;;5016649;28;20076;-71
2022/05/02 02:14:57;;;;;;;10.35;5.90;;;0.20;99.90;;;;;;5016789;28;20423;-71
2022/05/02 02:17:22;;;;;;;6.80;4.20;;;0.20;99.90;;;;;;5016450;28;20109;-71
2022/05/02 02:19:48;;;;;;;5.15;3.80;;;0.10;99.90;;;;;;5016485;28;20026;-71
2022/05/02 02:22:16;;;;;;;30.40;14.70;;;0.10;99.90;;;;;;5015500;28;20030;-71
2022/05/02 02:24:44;;;;;;;83.03;35.33;;;0.10;99.90;;;;;;5016657;28;20056;-71
2022/05/02 02:27:10;;;;;;;74.38;32.85;;;0.00;99.90;;;;;;5017165;28;20061;-71
2022/05/02 02:29:35;;;;;;;56.75;25.58;;;0.00;99.90;;;;;;5015986;28;20062;-71
2022/05/02 02:32:01;;;;;;;27.67;12.70;;;0.00;99.90;;;;;;5016173;28;20022;-71
2022/05/02 02:34:26;;;;;;;10.85;6.30;;;0.00;99.90;;;;;;5015846;28;20109;-72
2022/05/02 02:36:52;;;;;;;9.52;5.18;;;0.00;99.90;;;;;;5016137;28;20025;-71
2022/05/02 02:39:18;;;;;;;9.07;4.30;;;-0.10;99.90;;;;;;5014817;28;20041;-71
2022/05/02 02:41:43;;;;;;;11.23;4.47;;;-0.10;99.90;;;;;;5016423;28;20060;-72
2022/05/02 02:44:09;;;;;;;5.13;3.78;;;-0.10;99.90;;;;;;5014808;28;20028;-71
2022/05/02 02:46:34;;;;;;;6.03;4.13;;;-0.10;99.90;;;;;;5016102;28;20090;-71
2022/05/02 02:49:00;;;;;;;5.68;3.95;;;-0.10;99.90;;;;;;5015678;28;20093;-72
2022/05/02 02:51:25;;;;;;;6.00;4.25;;;-0.10;99.90;;;;;;5015925;28;20474;-71
2022/05/02 02:53:51;;;;;;;7.00;4.03;;;-0.10;99.90;;;;;;5015811;28;20053;-72
2022/05/02 02:56:17;;;;;;;6.20;4.22;;;-0.20;99.90;;;;;;5015502;28;20021;-72
2022/05/02 02:58:43;;;;;;;7.85;4.60;;;-0.20;99.90;;;;;;5015665;28;20460;-72
2022/05/02 03:01:09;;;;;;;7.35;4.60;;;-0.20;99.90;;;;;;5015853;28;20032;-72
2022/05/02 03:03:35;;;;;;;6.35;4.45;;;-0.20;99.90;;;;;;5015667;28;20053;-71
2022/05/02 03:06:04;;;;;;;6.55;4.53;;;-0.20;99.90;;;;;;5015816;28;20075;-71
2022/05/02 03:08:32;;;;;;;5.70;3.85;;;-0.20;99.90;;;;;;5015504;28;20025;-72
2022/05/02 03:10:57;;;;;;;5.35;4.20;;;-0.30;99.90;;;;;;5015476;28;20100;-72
2022/05/02 03:13:23;;;;;;;7.18;4.40;;;-0.30;99.90;;;;;;5015503;28;20058;-71
2022/05/02 03:15:49;;;;;;;5.53;3.90;;;-0.20;99.90;;;;;;5015579;28;20493;-71
2022/05/02 03:18:15;;;;;;;5.18;3.85;;;-0.20;99.90;;;;;;5015460;28;20076;-72
2022/05/02 03:20:40;;;;;;;10.18;5.30;;;-0.30;99.90;;;;;;5015240;28;20088;-71
2022/05/02 03:23:06;;;;;;;17.65;9.13;;;-0.40;99.90;;;;;;5015537;28;20036;-72
2022/05/02 03:25:32;;;;;;;13.52;6.95;;;-0.40;99.90;;;;;;5014951;28;20073;-71
2022/05/02 03:27:57;;;;;;;17.90;8.05;;;-0.50;99.90;;;;;;5015118;28;20056;-71
2022/05/02 03:30:23;;;;;;;10.35;5.60;;;-0.50;99.90;;;;;;5015053;28;20034;-71
2022/05/02 03:32:48;;;;;;;15.32;6.85;;;-0.60;99.90;;;;;;5015538;28;20026;-71
2022/05/02 03:35:14;;;;;;;10.13;5.90;;;-0.60;99.90;;;;;;5015056;28;20076;-71
2022/05/02 03:37:39;;;;;;;14.13;5.65;;;-0.70;99.90;;;;;;5015240;28;20022;-72
2022/05/02 03:40:07;;;;;;;7.72;5.20;;;-0.70;99.90;;;;;;5014526;28;20030;-72
2022/05/02 03:42:33;;;;;;;10.80;5.03;;;-0.70;99.90;;;;;;5014924;28;20501;-71
2022/05/02 03:44:58;;;;;;;8.18;4.32;;;-0.70;99.90;;;;;;5014944;28;20030;-71
2022/05/02 03:47:24;;;;;;;9.93;4.97;;;-0.80;99.90;;;;;;5015011;28;20488;-71
2022/05/02 03:49:49;;;;;;;6.95;3.85;;;-0.80;99.90;;;;;;5014900;28;20033;-71
2022/05/02 03:52:15;;;;;;;8.68;4.63;;;-0.80;99.90;;;;;;5014672;28;20026;-71
2022/05/02 03:54:40;;;;;;;10.63;4.70;;;-0.80;99.90;;;;;;5014707;28;20030;-71
2022/05/02 03:57:06;;;;;;;14.73;5.32;;;-0.80;99.90;;;;;;5013444;28;20021;-71
2022/05/02 03:59:32;;;;;;;11.95;4.13;;;-0.80;99.90;;;;;;5015091;28;20022;-71
2022/05/02 04:01:57;;;;;;;10.80;4.57;;;-0.90;99.90;;;;;;5014658;28;20442;-71
2022/05/02 04:04:23;;;;;;;8.13;4.35;;;-0.80;99.90;;;;;;5014383;28;20092;-71
2022/05/02 04:06:49;;;;;;;9.43;3.88;;;-0.90;99.90;;;;;;5014488;28;20025;-71
2022/05/02 04:09:15;;;;;;;11.85;4.18;;;-0.80;99.90;;;;;;5014606;28;20022;-71
2022/05/02 04:11:41;;;;;;;7.60;4.45;;;-0.80;99.90;;;;;;5014423;28;20540;-71
2022/05/02 04:14:06;;;;;;;6.88;4.30;;;-0.80;99.90;;;;;;5014440;28;20470;-72
2022/05/02 04:16:32;;;;;;;7.28;4.65;;;-0.70;99.90;;;;;;5014002;28;20113;-72
2022/05/02 04:18:58;;;;;;;7.05;4.00;;;-0.70;99.90;;;;;;5014221;28;20029;-71
2022/05/02 04:21:23;;;;;;;8.55;3.88;;;-0.70;99.90;;;;;;5014277;28;20041;-71
2022/05/02 04:23:49;;;;;;;7.57;4.43;;;-0.60;99.90;;;;;;5014564;28;20034;-71
2022/05/02 04:26:14;;;;;;;6.25;4.50;;;-0.60;99.90;;;;;;5014118;28;20026;-71
2022/05/02 04:28:40;;;;;;;8.57;5.45;;;-0.60;99.90;;;;;;5014256;28;20084;-72
2022/05/02 04:31:05;;;;;;;5.10;3.67;;;-0.60;99.90;;;;;;5014207;28;20067;-71
2022/05/02 04:33:31;;;;;;;10.35;4.95;;;-0.50;99.90;;;;;;5014702;28;20382;-71
2022/05/02 04:35:57;;;;;;;8.52;5.13;;;-0.50;99.90;;;;;;5014417;28;20101;-71
2022/05/02 04:38:22;;;;;;;8.48;5.35;;;-0.40;99.90;;;;;;5014085;28;20030;-72
2022/05/02 04:40:48;;;;;;;7.07;4.57;;;-0.40;99.90;;;;;;5013933;28;20765;-71
2022/05/02 04:43:14;;;;;;;9.02;5.60;;;-0.30;99.90;;;;;;5014066;28;20141;-71
2022/05/02 04:45:40;;;;;;;12.35;5.18;;;-0.20;99.90;;;;;;5014052;28;20048;-71
2022/05/02 04:48:06;;;;;;;8.13;4.20;;;-0.10;99.90;;;;;;5014035;28;20069;-71
2022/05/02 04:50:31;;;;;;;8.88;5.88;;;0.00;99.90;;;;;;5014514;28;20042;-71
2022/05/02 04:52:57;;;;;;;8.40;5.45;;;0.10;99.90;;;;;;5015944;28;20037;-71
2022/05/02 04:55:22;;;;;;;13.25;5.10;;;0.20;99.90;;;;;;5020859;28;20030;-71
2022/05/02 04:57:48;;;;;;;13.80;5.25;;;0.30;99.90;;;;;;5020738;28;20032;-71
2022/05/02 05:00:17;;;;;;;7.75;5.20;;;0.40;99.90;;;;;;5020667;28;20072;-71
2022/05/02 05:02:42;;;;;;;12.48;5.45;;;0.50;99.90;;;;;;5020223;28;20436;-71
2022/05/02 05:05:08;;;;;;;9.38;6.13;;;0.70;99.90;;;;;;5020685;28;20026;-71
2022/05/02 05:07:38;;;;;;;9.10;6.38;;;0.90;99.90;;;;;;5020215;28;20124;-71
2022/05/02 05:10:06;;;;;;;13.68;6.18;;;1.00;99.90;;;;;;5020287;28;20060;-72
2022/05/02 05:12:53;;;;;;;10.50;6.35;;;1.20;99.90;;;;;;5020325;28;20033;-71
2022/05/02 05:18:41;;;;;;;11.00;6.07;;;1.60;99.90;;;;;;5020676;28;20393;-71
2022/05/02 05:21:19;;;;;;;8.48;6.22;;;1.90;99.90;;;;;;5020356;28;20025;-71
2022/05/02 05:24:22;;;;;;;10.23;7.15;;;2.10;99.90;;;;;;5020567;28;20481;-71
2022/05/02 05:27:13;;;;;;;13.57;7.47;;;2.30;99.90;;;;;;5018909;28;20029;-71
2022/05/02 05:29:48;;;;;;;12.23;6.63;;;2.50;99.90;;;;;;5020176;28;20374;-71
2022/05/02 05:32:51;;;;;;;14.93;6.72;;;2.70;99.90;;;;;;5019856;28;20029;-71
2022/05/02 05:35:32;;;;;;;25.95;8.40;;;2.90;99.90;;;;;;4978921;28;20034;-71
2022/05/02 05:38:01;;;;;;;25.73;7.75;;;3.20;99.90;;;;;;5017089;28;20049;-70
2022/05/02 05:40:44;;;;;;;19.55;8.43;;;3.40;99.90;;;;;;5020534;28;20045;-70
2022/05/02 05:43:50;;;;;;;24.05;9.27;;;3.60;99.90;;;;;;5020004;28;20045;-70
2022/05/02 05:46:23;;;;;;;15.77;10.23;;;3.90;99.90;;;;;;4978923;28;20506;-70
2022/05/02 05:49:26;;;;;;;18.85;10.30;;;4.10;99.90;;;;;;5019981;28;20022;-70
2022/05/02 05:52:07;;;;;;;12.65;9.60;;;4.40;99.90;;;;;;5020764;28;20076;-70
2022/05/02 05:55:05;;;;;;;19.83;10.73;;;4.70;99.90;;;;;;5020230;28;20034;-71
2022/05/02 05:57:51;;;;;;;14.75;9.60;;;5.10;99.90;;;;;;5019718;28;20509;-71
2022/05/02 06:00:18;;;;;;;12.57;9.38;;;5.40;99.90;;;;;;5020461;28;20441;-70
2022/05/02 06:03:11;;;;;;;12.63;9.40;;;5.70;99.90;;;;;;5019778;28;20026;-70
2022/05/02 06:05:42;;;;;;;15.45;8.65;;;5.90;99.90;;;;;;5016375;28;20026;-70
2022/05/02 06:08:15;;;;;;;11.00;8.18;;;6.20;99.90;;;;;;5016142;28;20017;-70
2022/05/02 06:10:42;;;;;;;16.48;8.73;;;6.40;99.90;;;;;;5016796;28;20438;-70
2022/05/02 06:13:09;;;;;;;11.45;8.80;;;6.60;99.90;;;;;;5016730;28;20048;-70
2022/05/02 06:18:29;;;;;;;11.40;7.25;;;7.00;99.90;;;;;;5016707;28;20032;-70
2022/05/02 06:20:58;;;;;;;14.97;8.33;;;7.10;99.90;;;;;;5016912;28;20022;-70
2022/05/02 06:23:27;;;;;;;10.07;7.15;;;7.30;99.90;;;;;;5016689;28;20264;-76
2022/05/02 06:25:54;;;;;;;12.25;7.20;;;7.50;99.90;;;;;;5015320;28;20088;-69
2022/05/02 06:28:25;;;;;;;9.05;6.47;;;7.60;99.90;;;;;;5015942;28;20050;-71
2022/05/02 06:30:53;;;;;;;12.70;6.28;;;7.90;99.90;;;;;;5016619;28;20458;-71
2022/05/02 06:33:21;;;;;;;8.63;6.18;;;8.10;99.90;;;;;;5016274;28;20029;-71
2022/05/02 06:36:11;;;;;;;6.65;5.95;;;8.30;99.90;;;;;;5016628;28;20458;-71
2022/05/02 06:38:52;;;;;;;11.25;5.80;;;8.50;99.90;;;;;;5015782;28;20053;-71
2022/05/02 06:41:29;;;;;;;9.73;4.75;;;8.80;99.90;;;;;;5016482;28;20029;-71
2022/05/02 06:44:07;;;;;;;8.60;5.00;;;9.10;99.90;;;;;;5016111;28;20018;-71
2022/05/02 06:46:42;;;;;;;6.50;4.05;;;9.30;99.90;;;;;;5016261;28;20104;-71
2022/05/02 06:49:16;;;;;;;8.25;3.85;;;9.40;99.90;;;;;;5015660;28;20105;-71
2022/05/02 06:51:48;;;;;;;6.45;4.07;;;9.40;99.90;;;;;;5015985;28;20026;-71
2022/05/02 06:54:38;;;;;;;8.87;4.50;;;9.70;99.90;;;;;;5016209;28;20038;-71
2022/05/02 06:57:44;;;;;;;6.40;3.33;;;10.00;99.90;;;;;;5015414;28;20026;-71
2022/05/02 07:00:17;;;;;;;8.10;3.80;;;10.00;99.90;;;;;;5004013;28;20037;-71
2022/05/02 07:02:48;;;;;;;5.35;3.45;;;10.10;99.90;;;;;;5016394;28;20025;-71
2022/05/02 07:05:52;;;;;;;6.28;3.08;;;10.30;99.90;;;;;;5015524;28;20140;-71
2022/05/02 07:08:37;;;;;;;5.05;2.97;;;10.50;99.90;;;;;;4994837;28;20042;-71
2022/05/02 07:11:04;;;;;;;5.10;2.90;;;10.70;99.90;;;;;;5016035;28;20383;-71
2022/05/02 07:13:43;;;;;;;7.20;1.90;;;10.80;99.90;;;;;;5015636;28;20101;-71
2022/05/02 07:16:25;;;;;;;4.63;2.72;;;10.90;99.90;;;;;;5016826;28;20033;-71
2022/05/02 07:19:24;;;;;;;4.15;2.58;;;11.10;99.90;;;;;;5015785;28;20022;-71
2022/05/02 07:21:56;;;;;;;2.88;2.08;;;11.20;99.90;;;;;;5015832;28;20014;-71
2022/05/02 07:24:34;;;;;;;6.63;1.65;;;11.30;99.90;;;;;;5015695;28;20022;-71
2022/05/02 07:27:28;;;;;;;5.10;1.90;;;11.30;99.90;;;;;;5014851;28;20018;-71
2022/05/02 07:29:57;;;;;;;6.32;1.90;;;11.50;99.90;;;;;;5015758;28;20490;-71
2022/05/02 07:32:24;;;;;;;2.58;1.50;;;11.70;99.90;;;;;;5015076;28;20060;-71
2022/05/02 07:34:54;;;;;;;1.83;1.50;;;11.80;99.90;;;;;;5015434;28;20435;-71
2022/05/02 07:37:22;;;;;;;2.45;1.20;;;12.00;99.90;;;;;;5015132;28;20022;-71
2022/05/02 07:39:49;;;;;;;3.53;1.95;;;12.00;99.90;;;;;;5014430;28;20026;-71
2022/05/02 07:42:15;;;;;;;3.33;1.70;;;12.20;99.90;;;;;;5015126;28;20069;-71
2022/05/02 07:44:43;;;;;;;2.75;2.05;;;12.30;99.90;;;;;;5014956;28;20022;-71
2022/05/02 07:47:11;;;;;;;3.05;1.50;;;12.40;99.90;;;;;;5015172;28;20386;-71
2022/05/02 07:49:39;;;;;;;1.40;1.30;;;12.70;99.90;;;;;;5014958;28;20021;-71
2022/05/02 07:52:07;;;;;;;5.57;2.15;;;12.90;99.90;;;;;;5014844;28;20034;-71
2022/05/02 07:54:38;;;;;;;2.97;1.63;;;12.80;99.90;;;;;;5014453;28;20013;-71
2022/05/02 07:57:07;;;;;;;1.30;1.20;;;12.90;99.90;;;;;;5015072;28;20030;-71
2022/05/02 07:59:38;;;;;;;1.17;1.08;;;12.80;99.90;;;;;;5014790;28;20017;-71
2022/05/02 08:02:05;;;;;;;1.67;1.30;;;12.90;99.90;;;;;;5014261;28;20033;-71
2022/05/02 08:04:31;;;;;;;1.10;0.80;;;13.30;99.90;;;;;;5014859;28;20080;-71
2022/05/02 08:07:18;;;;;;;4.60;2.00;;;13.50;99.90;;;;;;5014770;28;20030;-71
2022/05/02 08:10:11;;;;;;;1.90;1.20;;;13.70;99.90;;;;;;5014242;28;20037;-71
2022/05/02 08:12:40;;;;;;;5.68;1.50;;;13.80;99.90;;;;;;5014610;28;20029;-71
2022/05/02 08:15:22;;;;;;;1.65;0.95;;;14.00;99.90;;;;;;5014656;28;20474;-71
2022/05/02 08:18:18;;;;;;;2.42;1.10;;;14.10;99.90;;;;;;5014434;28;20031;-70
2022/05/02 08:21:09;;;;;;;2.33;0.82;;;14.40;99.90;;;;;;5014220;28;20036;-70
2022/05/02 08:29:15;;;;;;;1.85;0.75;;;14.60;99.90;;;;;;5013539;28;20029;-70
2022/05/02 08:31:52;;;;;;;1.13;0.70;;;14.70;99.90;;;;;;5014496;28;20026;-70
2022/05/02 08:34:38;;;;;;;0.60;0.60;;;14.80;99.90;;;;;;5014049;28;20022;-70
2022/05/02 08:37:36;;;;;;;3.50;1.05;;;14.80;99.90;;;;;;5014155;28;20099;-70
2022/05/02 08:40:04;;;;;;;1.13;0.90;;;14.70;99.90;;;;;;5014037;28;20032;-70
2022/05/02 08:43:05;;;;;;;0.95;0.82;;;15.00;99.90;;;;;;5012255;28;20554;-70
2022/05/02 08:46:07;;;;;;;2.50;0.80;;;15.00;99.90;;;;;;5013987;28;20030;-70
2022/05/02 08:52:30;;;;;;;2.25;1.23;;;15.40;99.90;;;;;;5013699;28;20033;-69
2022/05/02 08:55:08;;;;;;;2.13;1.42;;;15.50;99.90;;;;;;5014011;28;20073;-70
2022/05/02 08:58:04;;;;;;;3.05;1.20;;;15.40;99.90;;;;;;5014268;28;20033;-69
2022/05/02 09:01:00;;;;;;;3.08;1.50;;;15.40;99.90;;;;;;5013991;28;20434;-70
2022/05/02 09:04:03;;;;;;;3.40;1.52;;;15.30;99.90;;;;;;5014223;28;20030;-69
2022/05/02 09:06:46;;;;;;;1.85;0.85;;;15.70;99.90;;;;;;5013834;28;20018;-69
2022/05/02 09:09:49;;;;;;;2.13;1.10;;;16.00;99.90;;;;;;5013913;28;20017;-69
2022/05/02 09:12:32;;;;;;;1.65;0.98;;;15.70;98.60;;;;;;5012582;28;20128;-68
2022/05/02 09:15:13;;;;;;;1.98;0.73;;;15.50;98.50;;;;;;5013415;28;20052;-69
2022/05/02 09:18:04;;;;;;;3.42;0.82;;;15.50;98.70;;;;;;5014069;28;20030;-69
2022/05/02 09:20:39;;;;;;;2.38;0.80;;;15.40;98.50;;;;;;5014032;28;20462;-68
2022/05/02 09:23:29;;;;;;;2.20;1.33;;;15.40;99.90;;;;;;5013394;28;20075;-68
2022/05/02 09:25:57;;;;;;;0.70;0.70;;;15.60;98.50;;;;;;5013387;28;20029;-68
2022/05/02 09:28:38;;;;;;;0.65;0.63;;;15.90;96.50;;;;;;5013322;28;20492;-68
2022/05/02 09:31:41;;;;;;;1.42;0.52;;;15.80;92.50;;;;;;5012986;28;20060;-68
2022/05/02 09:34:36;;;;;;;1.02;0.45;;;15.70;91.50;;;;;;5003239;28;20036;-69
2022/05/02 09:37:03;;;;;;;3.08;0.47;;;15.70;92.90;;;;;;4994250;28;20361;-70
2022/05/02 09:39:52;;;;;;;1.05;0.82;;;15.60;90.90;;;;;;4995538;28;20409;-70
2022/05/02 09:42:36;;;;;;;0.95;0.70;;;15.50;93.10;;;;;;4979039;28;20030;-70
2022/05/02 09:51:01;;;;;;;4.05;1.10;;;16.00;94.50;;;;;;4977332;28;20110;-70
2022/05/02 09:53:35;;;;;;;5.57;1.10;;;16.10;93.90;;;;;;4978046;28;20034;-70
2022/05/02 09:56:39;;;;;;;1.08;0.90;;;15.90;91.50;;;;;;4978361;28;20380;-70
2022/05/02 09:59:09;;;;;;;1.92;1.20;;;15.90;95.10;;;;;;4977638;28;20031;-70
2022/05/02 10:01:41;;;;;;;3.63;1.48;;;16.10;94.70;;;;;;4977705;28;20025;-70
2022/05/02 10:04:30;;;;;;;2.20;1.10;;;16.00;93.90;;;;;;4978040;28;20023;-70
2022/05/02 10:07:18;;;;;;;8.30;1.40;;;16.10;93.50;;;;;;4977546;28;20038;-69
2022/05/02 10:09:51;;;;;;;4.93;1.25;;;16.20;97.30;;;;;;4977278;28;20134;-70
2022/05/02 10:12:54;;;;;;;7.80;1.27;;;16.60;97.30;;;;;;4977760;28;20502;-70
2022/05/02 10:15:38;;;;;;;4.00;1.30;;;17.10;95.10;;;;;;4976974;28;20490;-68
2022/05/02 10:18:18;;;;;;;3.47;1.35;;;17.10;93.30;;;;;;4977684;28;20022;-67
2022/05/02 10:20:51;;;;;;;10.43;1.45;;;17.00;94.70;;;;;;4977484;28;20027;-68
2022/05/02 10:23:39;;;;;;;3.05;1.80;;;16.90;96.60;;;;;;4977823;28;20073;-69
2022/05/02 10:26:47;;;;;;;2.03;1.38;;;16.60;94.20;;;;;;4977235;28;20395;-70
2022/05/02 10:29:31;;;;;;;9.02;1.45;;;16.80;97.70;;;;;;4977163;28;20034;-68
2022/05/02 10:32:06;;;;;;;4.50;1.52;;;16.90;95.40;;;;;;4977324;28;20035;-68
2022/05/02 10:34:33;;;;;;;5.50;1.70;;;16.50;93.80;;;;;;4977144;28;20114;-68
2022/05/02 10:37:06;;;;;;;4.20;1.63;;;16.50;97.80;;;;;;4977622;28;20034;-68
2022/05/02 10:39:38;;;;;;;2.75;1.63;;;16.40;95.60;;;;;;4976548;28;20410;-67
2022/05/02 10:42:06;;;;;;;5.70;1.60;;;16.20;96.30;;;;;;4977218;28;20057;-67
2022/05/02 10:44:49;;;;;;;8.30;1.88;;;16.30;97.10;;;;;;4976909;28;20027;-69
2022/05/02 10:47:19;;;;;;;4.53;1.70;;;16.10;96.90;;;;;;4977231;28;20386;-70
2022/05/02 10:50:04;;;;;;;2.30;1.30;;;16.00;96.80;;;;;;4976804;28;20055;-70
2022/05/02 10:52:47;;;;;;;1.20;1.10;;;16.00;95.40;;;;;;4975699;28;20018;-70
2022/05/02 10:55:20;;;;;;;1.60;1.00;;;15.90;96.90;;;;;;4976998;28;20398;-69
2022/05/02 10:57:52;;;;;;;1.85;1.17;;;16.10;94.20;;;;;;4976930;28;20065;-69
2022/05/02 11:00:17;;;;;;;6.13;1.00;;;16.20;97.70;;;;;;4976609;28;20023;-69
2022/05/02 11:03:21;;;;;;;2.70;0.90;;;16.30;93.60;;;;;;4976550;28;20368;-73
2022/05/02 11:06:07;;;;;;;7.88;0.93;;;16.00;94.20;;;;;;4973949;28;20034;-70
2022/05/02 11:08:46;;;;;;;1.55;0.70;;;16.20;94.70;;;;;;4958119;28;20035;-70
2022/05/02 11:11:42;;;;;;;2.42;1.00;;;16.50;96.10;;;;;;4975974;28;20042;-70
2022/05/02 11:14:39;;;;;;;1.45;1.00;;;16.50;94.40;;;;;;4990840;28;20486;-70
2022/05/02 11:17:16;;;;;;;1.08;0.95;;;16.30;95.00;;;;;;4976421;28;20035;-70
2022/05/02 11:22:41;;;;;;;5.15;1.15;;;16.50;92.60;;;;;;4976098;28;20042;-70
2022/05/02 11:25:24;;;;;;;3.95;1.45;;;16.30;94.60;;;;;;4976423;28;20030;-70
2022/05/02 11:28:14;;;;;;;0.90;0.90;;;16.60;95.00;;;;;;4976393;28;20022;-70
2022/05/02 11:30:48;;;;;;;1.35;1.08;;;16.90;95.10;;;;;;4975990;28;20033;-68
2022/05/02 11:33:29;;;;;;;3.90;1.90;;;16.80;98.00;;;;;;4975635;28;20484;-68
2022/05/02 11:36:00;;;;;;;2.92;1.45;;;17.20;95.50;;;;;;4976008;28;20498;-68
2022/05/02 11:38:41;;;;;;;5.00;1.00;;;17.00;93.60;;;;;;4975882;28;20114;-68
2022/05/02 11:41:21;;;;;;;3.20;1.10;;;16.50;94.40;;;;;;4976420;28;20042;-71
2022/05/02 11:43:48;;;;;;;4.07;1.08;;;16.20;96.00;;;;;;4975815;28;20030;-71
2022/05/02 11:46:22;;;;;;;3.90;1.00;;;16.40;96.30;;;;;;4975928;28;20039;-71
2022/05/02 11:49:11;;;;;;;1.55;0.90;;;17.00;98.20;;;;;;4976054;28;20045;-71
2022/05/02 11:51:50;;;;;;;1.20;0.70;;;17.10;94.80;;;;;;4976343;28;20089;-72
2022/05/02 11:54:35;;;;;;;2.85;0.60;;;17.30;94.40;;;;;;4976012;28;20026;-71
2022/05/02 11:57:22;;;;;;;1.17;0.80;;;17.30;92.90;;;;;;4975329;28;20026;-72
2022/05/02 12:00:05;;;;;;;3.50;1.00;;;17.30;93.50;;;;;;4975905;28;20023;-72
2022/05/02 12:02:53;;;;;;;3.33;0.60;;;17.70;94.70;;;;;;4975230;28;20431;-71
2022/05/02 12:05:41;;;;;;;1.83;0.52;;;18.00;92.50;;;;;;4976775;28;20019;-71
2022/05/02 12:08:09;;;;;;;4.22;0.63;;;18.40;90.50;;;;;;4975907;28;20059;-72
2022/05/02 12:10:47;;;;;;;2.25;1.10;;;18.70;93.00;;;;;;4975438;28;20463;-69
2022/05/02 12:13:17;;;;;;;1.13;0.50;;;18.60;92.90;;;;;;4975262;28;20498;-67
2022/05/02 12:15:54;;;;;;;1.70;0.70;;;18.80;91.50;;;;;;4975486;28;20098;-69
2022/05/02 12:18:20;;;;;;;2.15;0.60;;;18.80;88.50;;;;;;4975666;28;20068;-71
2022/05/02 12:20:54;;;;;;;1.77;0.80;;;18.60;91.00;;;;;;4975387;28;20121;-69
2022/05/02 12:23:23;;;;;;;20.65;1.02;;;18.70;88.70;;;;;;4975115;28;20410;-69
2022/05/02 12:25:50;;;;;;;0.70;0.47;;;19.10;89.20;;;;;;4975734;28;20065;-69
2022/05/02 12:28:36;;;;;;;1.95;0.70;;;19.00;86.00;;;;;;4975079;28;20026;-69
2022/05/02 12:31:01;;;;;;;2.15;0.90;;;18.50;84.60;;;;;;4989978;28;20028;-68
2022/05/02 12:33:27;;;;;;;0.80;0.68;;;18.60;90.20;;;;;;4975383;28;20026;-69
2022/05/02 12:35:53;;;;;;;2.40;0.82;;;18.80;88.20;;;;;;4975120;28;20029;-69
2022/05/02 12:38:26;;;;;;;1.90;0.85;;;18.60;85.00;;;;;;4975061;28;20476;-69
2022/05/02 12:40:58;;;;;;;0.95;0.52;;;18.60;82.20;;;;;;4974525;28;20053;-70
2022/05/02 12:43:32;;;;;;;1.30;0.40;;;18.80;82.90;;;;;;4975399;28;20027;-69
2022/05/02 12:46:07;;;;;;;2.20;0.52;;;19.10;82.60;;;;;;4975290;28;20469;-69
2022/05/02 12:48:37;;;;;;;1.80;0.60;;;19.20;80.30;;;;;;4974269;28;20063;-68
2022/05/02 12:51:15;;;;;;;1.38;0.52;;;19.60;82.20;;;;;;4975126;28;20026;-68
2022/05/02 12:56:25;;;;;;;;;;;19.00;72.80;;;;;;4975818;28;20037;-69
2022/05/02 13:01:46;;;;;;;0.73;0.40;;;19.20;75.60;;;;;;4974987;28;20038;-70
2022/05/02 13:04:17;;;;;;;1.08;0.30;;;18.70;72.40;;;;;;4975510;28;20033;-70
2022/05/02 13:06:44;;;;;;;1.45;0.40;;;18.70;73.20;;;;;;4975223;28;20357;-70
2022/05/02 13:09:12;;;;;;;1.05;0.40;;;19.00;74.70;;;;;;4975042;28;20023;-69
2022/05/02 13:11:39;;;;;;;1.85;0.40;;;18.60;73.30;;;;;;4974980;28;20073;-70
2022/05/02 13:14:05;;;;;;;0.25;0.25;;;18.50;75.20;;;;;;4975286;28;20030;-69
2022/05/02 13:16:32;;;;;;;7.22;0.65;;;18.60;73.00;;;;;;4979009;28;20022;-72
2022/05/02 13:19:03;;;;;;;1.17;0.50;;;18.20;74.00;;;;;;4978696;28;20420;-72
2022/05/02 13:21:29;;;;;;;0.20;0.20;;;18.60;73.30;;;;;;4979214;28;20022;-72
2022/05/02 13:23:57;;;;;;;0.80;0.57;;;18.30;69.10;;;;;;4978791;28;20066;-72
2022/05/02 13:27:02;;;;;;;2.40;0.50;;;18.40;71.20;;;;;;4978948;28;20515;-72
2022/05/02 13:29:31;;;;;;;0.55;0.35;;;18.80;67.90;;;;;;4979125;28;20030;-69
2022/05/02 13:32:10;;;;;;;0.63;0.35;;;18.90;70.20;;;;;;4978712;28;20149;-70
2022/05/02 13:34:53;;;;;;;0.95;0.60;;;18.90;68.40;;;;;;4978944;28;20015;-70
2022/05/02 13:37:36;;;;;;;0.40;0.40;;;18.80;69.50;;;;;;4978794;28;20058;-70
2022/05/02 13:40:01;;;;;;;2.08;0.40;;;18.80;66.20;;;;;;4978805;28;20085;-70
2022/05/02 13:43:00;;;;;;;0.28;0.28;;;18.60;69.30;;;;;;4977925;28;20027;-70
2022/05/02 13:45:32;;;;;;;1.98;0.60;;;18.60;68.00;;;;;;4978376;28;20093;-70
2022/05/02 13:48:26;;;;;;;2.13;0.43;;;18.20;67.60;;;;;;4978441;28;20030;-70
2022/05/02 13:51:16;;;;;;;1.45;0.43;;;18.20;68.00;;;;;;4978282;28;20026;-70
2022/05/02 13:54:03;;;;;;;1.85;0.60;;;18.40;67.50;;;;;;4978389;28;20037;-70
2022/05/02 13:57:04;;;;;;;1.60;0.40;;;18.30;65.10;;;;;;4977558;28;20514;-70